Ekin, Indiana
Current Conditions -  °F | °C
As of 4:35 PM on Wednesday 26 Nov 2014 (Local Time) from KTYQ Reporting Station
Clear Clear  
Wind Chill: 32°   Ceiling: Unl
Heat Index: 32°   Visibility: 10mi
Dew Point: 22°   Wind: 3mph
Humidity: 66%   Direction: 60°ENE
Pressure: 30.06"   Gusts: NA
Location:  40.1832°N, 85.9359°W
Report Text: KTYQ 262135Z AUTO 06003KT 10SM CLR 00/M05 A3006 RMK AO2 T00011055
Loading
Personal Weather Stations






























Interactive Weather Map New forecast layout! Learn more

10-Day Weather Forecast

Advertisements
Track Severe Weather on mobile